Time;durP1;ratioP1;P1;durP2;ratioP2;P2;SDS_P1;SDS_P2;PMS_P1;PMS_P2;Temp;Humidity;BMP_temperature;BMP_pressure;BME280_temperature;BME280_humidity;BME280_pressure;Samples;Min_cycle;Max_cycle;Signal;HPM_P1;HPM_P2
2023/04/09 00:00:45;;;;;;;108.00;50.57;;;7.20;1.00;;;;;;5030983;28;20187;-49
2023/04/09 00:03:10;;;;;;;109.57;50.70;;;7.20;1.00;;;;;;5032012;28;20187;-49
2023/04/09 00:05:39;;;;;;;101.43;47.63;;;7.20;99.90;;;;;;5031736;28;20187;-49
2023/04/09 00:08:06;;;;;;;106.70;48.90;;;7.20;99.90;;;;;;5033683;28;20217;-49
2023/04/09 00:10:31;;;;;;;100.07;45.73;;;7.20;26.60;;;;;;5032917;28;20438;-49
2023/04/09 00:12:57;;;;;;;108.40;47.07;;;7.20;99.90;;;;;;5034887;28;20438;-50
2023/04/09 00:15:22;;;;;;;107.83;46.80;;;7.20;99.90;;;;;;5032731;28;20217;-49
2023/04/09 00:17:48;;;;;;;101.07;46.40;;;7.20;1.00;;;;;;5032172;28;20544;-51
2023/04/09 00:20:14;;;;;;;102.83;47.93;;;7.20;1.00;;;;;;5032754;28;20211;-50
2023/04/09 00:22:40;;;;;;;112.13;47.77;;;7.20;99.90;;;;;;5059152;28;20205;-50
2023/04/09 00:25:06;;;;;;;92.27;45.33;;;7.20;99.90;;;;;;5033334;28;20952;-50
2023/04/09 00:27:31;;;;;;;98.33;45.37;;;7.10;1.00;;;;;;5032255;28;20266;-50
2023/04/09 00:29:57;;;;;;;116.80;47.27;;;7.10;33.70;;;;;;5031094;28;20468;-50
2023/04/09 00:32:23;;;;;;;106.63;48.60;;;7.20;99.90;;;;;;5031000;28;20219;-50
2023/04/09 00:34:49;;;;;;;103.07;47.77;;;7.10;99.90;;;;;;5031161;28;20219;-50
2023/04/09 00:37:14;;;;;;;104.07;46.20;;;7.10;99.90;;;;;;5032808;28;20290;-50
2023/04/09 00:39:40;;;;;;;106.27;50.83;;;7.10;1.00;;;;;;5032166;28;20819;-50
2023/04/09 00:42:06;;;;;;;96.07;48.40;;;7.10;1.00;;;;;;5031396;28;20187;-50
2023/04/09 00:44:31;;;;;;;111.50;48.50;;;7.10;1.00;;;;;;5030495;28;20191;-50
2023/04/09 00:46:59;;;;;;;104.23;47.50;;;7.10;1.00;;;;;;5031573;28;20326;-50
2023/04/09 00:49:25;;;;;;;117.33;50.63;;;7.10;1.00;;;;;;5031617;28;20659;-50
2023/04/09 00:51:51;;;;;;;115.07;50.10;;;7.10;1.00;;;;;;5031055;28;20449;-49
2023/04/09 00:54:18;;;;;;;115.00;52.23;;;7.10;1.00;;;;;;5031910;28;20459;-49
2023/04/09 00:56:44;;;;;;;110.83;47.53;;;7.10;1.00;;;;;;5031346;28;20477;-50
2023/04/09 00:59:10;;;;;;;111.20;49.80;;;7.10;20.70;;;;;;5030408;28;20476;-50
2023/04/09 01:01:35;;;;;;;109.93;49.93;;;7.10;30.40;;;;;;5030906;28;20444;-50
2023/04/09 01:04:01;;;;;;;106.47;47.43;;;7.10;54.70;;;;;;5030931;28;20286;-50
2023/04/09 01:06:41;;;;;;;112.43;48.40;;;7.10;81.00;;;;;;5031603;28;20268;-50
2023/04/09 01:09:09;;;;;;;113.00;48.73;;;7.00;99.90;;;;;;5029579;28;20891;-49
2023/04/09 01:11:55;;;;;;;116.37;49.57;;;7.00;99.90;;;;;;5030993;28;20527;-49
2023/04/09 01:14:31;;;;;;;118.93;47.33;;;7.00;99.90;;;;;;5028077;28;20460;-49
2023/04/09 01:17:05;;;;;;;128.30;49.63;;;7.10;99.90;;;;;;5030711;28;20434;-49
2023/04/09 01:19:40;;;;;;;98.83;46.90;;;7.10;99.90;;;;;;5028245;28;20453;-49
2023/04/09 01:22:18;;;;;;;110.40;45.00;;;7.10;99.90;;;;;;5027509;28;20433;-49
2023/04/09 01:24:59;;;;;;;100.10;45.47;;;7.10;99.90;;;;;;5030892;28;20496;-49
2023/04/09 01:27:29;;;;;;;110.57;47.00;;;7.10;99.90;;;;;;5030376;28;20474;-49
2023/04/09 01:29:56;;;;;;;120.00;48.57;;;7.10;99.90;;;;;;5028330;28;20430;-50
2023/04/09 01:32:23;;;;;;;113.37;47.87;;;7.10;99.90;;;;;;5030560;28;20794;-49
2023/04/09 01:34:50;;;;;;;113.73;47.00;;;7.10;99.90;;;;;;5031982;28;20434;-49
2023/04/09 01:37:17;;;;;;;121.93;48.07;;;7.20;99.90;;;;;;5030359;28;20499;-49
2023/04/09 01:39:43;;;;;;;111.90;45.87;;;7.20;99.90;;;;;;5030139;28;20957;-50
2023/04/09 01:42:11;;;;;;;101.63;43.33;;;7.20;99.90;;;;;;5030583;28;20434;-50
2023/04/09 01:44:39;;;;;;;105.37;44.33;;;7.10;99.90;;;;;;5031020;28;20462;-49
2023/04/09 01:47:07;;;;;;;105.87;44.83;;;7.10;99.90;;;;;;5027877;28;20800;-49
2023/04/09 01:49:33;;;;;;;107.47;47.00;;;7.10;99.90;;;;;;5029884;28;20436;-49
2023/04/09 01:51:59;;;;;;;108.20;45.47;;;7.10;99.90;;;;;;5030743;28;20443;-50
2023/04/09 01:54:25;;;;;;;110.60;43.87;;;7.10;99.90;;;;;;5030914;28;20437;-49
2023/04/09 01:56:50;;;;;;;103.13;45.40;;;7.10;99.90;;;;;;5029326;28;20441;-50
2023/04/09 01:59:16;;;;;;;100.53;43.77;;;7.10;99.90;;;;;;5030801;28;20182;-50
2023/04/09 02:01:48;;;;;;;103.43;44.10;;;7.10;99.90;;;;;;5029404;28;21929;-50
2023/04/09 02:04:29;;;;;;;114.47;43.83;;;7.10;99.90;;;;;;5030546;28;20334;-50
2023/04/09 02:07:06;;;;;;;100.13;41.27;;;7.10;99.90;;;;;;5029845;28;20469;-49
2023/04/09 02:09:35;;;;;;;102.07;41.40;;;7.10;99.90;;;;;;5029365;28;20867;-49
2023/04/09 02:12:04;;;;;;;103.33;44.50;;;7.10;99.90;;;;;;5030531;28;20487;-49
2023/04/09 02:14:32;;;;;;;94.77;42.03;;;7.20;99.90;;;;;;5030573;28;20432;-49
2023/04/09 02:16:58;;;;;;;94.40;41.80;;;7.10;99.90;;;;;;5029677;28;20430;-50
2023/04/09 02:19:24;;;;;;;94.97;40.30;;;7.10;99.90;;;;;;5030835;28;20804;-50
2023/04/09 02:21:49;;;;;;;90.47;39.53;;;7.10;99.90;;;;;;5029256;28;22237;-50
2023/04/09 02:24:15;;;;;;;86.67;37.63;;;7.10;99.90;;;;;;5030959;28;20199;-50
2023/04/09 02:26:41;;;;;;;91.83;38.40;;;7.10;99.90;;;;;;5029527;28;20253;-50
2023/04/09 02:29:06;;;;;;;98.77;39.13;;;7.10;99.90;;;;;;5029641;28;20191;-51
2023/04/09 02:31:32;;;;;;;88.60;38.37;;;7.10;99.90;;;;;;5029741;28;20191;-50
2023/04/09 02:33:58;;;;;;;90.60;40.00;;;7.20;99.90;;;;;;5029968;28;20183;-50
2023/04/09 02:36:25;;;;;;;92.73;39.47;;;7.10;99.90;;;;;;5029523;28;20184;-50
2023/04/09 02:38:50;;;;;;;96.90;42.03;;;7.20;99.90;;;;;;5028456;28;20445;-50
2023/04/09 02:41:16;;;;;;;98.87;42.77;;;7.20;99.90;;;;;;5030584;28;20808;-50
2023/04/09 02:43:41;;;;;;;87.97;41.10;;;7.20;99.90;;;;;;5030048;28;20242;-50
2023/04/09 02:46:07;;;;;;;94.07;41.90;;;7.10;99.90;;;;;;5029582;28;20545;-50
2023/04/09 02:48:33;;;;;;;112.73;46.67;;;7.20;99.90;;;;;;5029014;28;20335;-50
2023/04/09 02:50:58;;;;;;;113.40;47.93;;;7.20;99.90;;;;;;5029208;28;20191;-52
2023/04/09 02:53:24;;;;;;;116.40;46.40;;;7.20;99.90;;;;;;5029882;28;20199;-50
2023/04/09 02:55:50;;;;;;;113.80;48.67;;;7.10;99.90;;;;;;5028359;28;20191;-50
2023/04/09 02:58:15;;;;;;;105.53;46.97;;;7.10;99.90;;;;;;5029589;28;20446;-50
2023/04/09 03:00:41;;;;;;;100.27;44.97;;;7.10;99.90;;;;;;5029566;28;20187;-50
2023/04/09 03:03:07;;;;;;;115.57;48.00;;;7.20;99.90;;;;;;5029910;28;20644;-50
2023/04/09 03:05:32;;;;;;;111.63;48.13;;;7.10;99.90;;;;;;5029513;28;20199;-50
2023/04/09 03:07:58;;;;;;;111.07;47.13;;;7.10;99.90;;;;;;5028883;28;20224;-50
2023/04/09 03:10:23;;;;;;;115.23;47.10;;;7.10;99.90;;;;;;5032977;28;20544;-49
2023/04/09 03:12:49;;;;;;;102.80;44.37;;;7.10;99.90;;;;;;5033230;28;20187;-50
2023/04/09 03:15:15;;;;;;;119.33;44.67;;;7.10;99.90;;;;;;5033554;28;20188;-50
2023/04/09 03:17:41;;;;;;;108.20;44.30;;;7.10;99.90;;;;;;5033209;28;20456;-50
2023/04/09 03:20:07;;;;;;;117.20;45.60;;;7.10;99.90;;;;;;5033756;28;20438;-50
2023/04/09 03:22:39;;;;;;;105.50;42.43;;;7.10;99.90;;;;;;5032025;28;20664;-50
2023/04/09 03:25:05;;;;;;;111.87;46.23;;;7.10;99.90;;;;;;5034401;28;20486;-50
2023/04/09 03:27:31;;;;;;;120.97;48.30;;;7.10;99.90;;;;;;5032337;28;20512;-50
2023/04/09 03:29:57;;;;;;;119.97;43.83;;;7.10;99.90;;;;;;5032062;28;20488;-50
2023/04/09 03:32:23;;;;;;;117.23;46.10;;;7.10;99.90;;;;;;5033251;28;20475;-50
2023/04/09 03:34:49;;;;;;;110.20;45.27;;;7.10;99.90;;;;;;5032772;28;20216;-50
2023/04/09 03:37:14;;;;;;;108.93;45.20;;;7.10;99.90;;;;;;5033314;28;20187;-50
2023/04/09 03:39:40;;;;;;;139.47;47.50;;;7.10;99.90;;;;;;5031729;28;20719;-50
2023/04/09 03:42:06;;;;;;;138.30;49.00;;;7.00;99.90;;;;;;5033510;28;20179;-50
2023/04/09 03:44:32;;;;;;;144.37;50.07;;;7.10;99.90;;;;;;5032743;28;20186;-50
2023/04/09 03:46:57;;;;;;;126.93;49.30;;;7.10;99.90;;;;;;5032906;28;20787;-49
2023/04/09 03:49:23;;;;;;;128.50;47.87;;;7.10;99.90;;;;;;5032418;28;20190;-50
2023/04/09 03:51:48;;;;;;;140.57;49.17;;;7.00;99.90;;;;;;5030370;28;20623;-50
2023/04/09 03:54:14;;;;;;;150.73;50.47;;;7.00;99.90;;;;;;5033110;28;20188;-49
2023/04/09 03:56:40;;;;;;;127.30;47.87;;;7.00;99.90;;;;;;5033054;28;20195;-50
2023/04/09 03:59:05;;;;;;;148.70;48.03;;;7.00;99.90;;;;;;5032937;28;20188;-51
2023/04/09 04:01:31;;;;;;;146.87;48.57;;;7.00;99.90;;;;;;5032639;28;20625;-49
2023/04/09 04:03:57;;;;;;;144.07;49.43;;;7.00;99.90;;;;;;5034019;28;20192;-49
2023/04/09 04:06:22;;;;;;;145.33;48.13;;;7.00;99.90;;;;;;5032551;28;20248;-49
2023/04/09 04:08:48;;;;;;;150.57;49.83;;;7.00;99.90;;;;;;5033488;28;20551;-56
2023/04/09 04:11:13;;;;;;;146.37;47.83;;;6.90;99.90;;;;;;5031310;28;20643;-51
2023/04/09 04:13:39;;;;;;;127.43;46.53;;;7.00;99.90;;;;;;5031963;28;20198;-51
2023/04/09 04:16:08;;;;;;;137.77;45.80;;;6.90;99.90;;;;;;5033050;28;20231;-50
2023/04/09 04:18:34;;;;;;;134.77;48.57;;;7.00;99.90;;;;;;5031697;28;20219;-50
2023/04/09 04:21:00;;;;;;;150.20;48.07;;;7.00;99.90;;;;;;5031449;28;20576;-49
2023/04/09 04:23:25;;;;;;;124.57;45.07;;;7.00;99.90;;;;;;5031933;28;20533;-50
2023/04/09 04:25:52;;;;;;;141.90;48.40;;;7.00;99.90;;;;;;5033426;28;20306;-50
2023/04/09 04:28:17;;;;;;;146.07;48.67;;;7.00;99.90;;;;;;5031622;28;20227;-49
2023/04/09 04:30:43;;;;;;;145.00;48.33;;;6.90;99.90;;;;;;5032572;28;20789;-49
2023/04/09 04:33:09;;;;;;;140.60;47.37;;;7.00;99.90;;;;;;5031514;28;20183;-49
2023/04/09 04:35:34;;;;;;;132.10;47.50;;;7.00;99.90;;;;;;5031245;28;20187;-50
2023/04/09 04:38:00;;;;;;;128.77;46.60;;;6.90;99.90;;;;;;5032542;28;20187;-49
2023/04/09 04:40:26;;;;;;;138.13;47.53;;;6.90;99.90;;;;;;5030272;28;20186;-49
2023/04/09 04:42:52;;;;;;;130.87;45.47;;;6.90;99.90;;;;;;5032532;28;20187;-49
2023/04/09 04:45:17;;;;;;;140.07;46.80;;;6.90;99.90;;;;;;5031021;28;20213;-50
2023/04/09 04:47:43;;;;;;;115.17;41.27;;;6.90;99.90;;;;;;5032328;28;20247;-50
2023/04/09 04:50:09;;;;;;;115.13;41.07;;;6.90;99.90;;;;;;5030602;28;20330;-49
2023/04/09 04:52:35;;;;;;;123.73;43.47;;;6.90;99.90;;;;;;5032266;28;20644;-50
2023/04/09 04:55:01;;;;;;;127.43;41.47;;;6.90;99.90;;;;;;5031630;28;20430;-49
2023/04/09 04:57:26;;;;;;;119.10;43.07;;;6.90;99.90;;;;;;5031365;28;20441;-50
2023/04/09 04:59:52;;;;;;;117.90;43.20;;;6.90;99.90;;;;;;5032041;28;20206;-49
2023/04/09 05:02:17;;;;;;;116.97;43.17;;;6.90;99.90;;;;;;5031201;28;20190;-50
2023/04/09 05:04:43;;;;;;;98.70;39.10;;;6.90;99.90;;;;;;5032435;28;20249;-50
2023/04/09 05:07:08;;;;;;;121.57;43.40;;;6.90;99.90;;;;;;5030231;28;20710;-50
2023/04/09 05:09:34;;;;;;;103.60;42.43;;;7.00;99.90;;;;;;5031638;28;20253;-50
2023/04/09 05:12:00;;;;;;;116.63;44.00;;;7.00;99.90;;;;;;5030614;28;20202;-50
2023/04/09 05:14:25;;;;;;;122.23;45.53;;;7.00;99.90;;;;;;5031731;28;20222;-50
2023/04/09 05:16:51;;;;;;;115.00;43.77;;;7.00;99.90;;;;;;5030586;28;20215;-50
2023/04/09 05:19:17;;;;;;;121.40;41.93;;;6.90;99.90;;;;;;5029306;28;20194;-49
2023/04/09 05:21:42;;;;;;;115.97;41.13;;;7.00;99.90;;;;;;5031611;28;20643;-50
2023/04/09 05:24:08;;;;;;;100.13;40.73;;;7.00;99.90;;;;;;5031409;28;20182;-50
2023/04/09 05:26:33;;;;;;;111.93;42.27;;;6.90;99.90;;;;;;5028986;28;20222;-50
2023/04/09 05:28:59;;;;;;;102.73;41.17;;;7.00;99.90;;;;;;5030844;28;20562;-50
2023/04/09 05:31:25;;;;;;;113.13;42.80;;;7.00;99.90;;;;;;5028862;28;20179;-50
2023/04/09 05:33:51;;;;;;;102.27;39.30;;;7.00;99.90;;;;;;5030995;28;20194;-50
2023/04/09 05:36:18;;;;;;;100.60;38.87;;;7.10;99.90;;;;;;5029757;28;20587;-50
2023/04/09 05:38:47;;;;;;;97.07;38.80;;;7.10;99.90;;;;;;5030740;28;20443;-50
2023/04/09 05:41:13;;;;;;;92.93;36.80;;;7.10;99.90;;;;;;5026993;28;20821;-50
2023/04/09 05:43:38;;;;;;;84.30;36.40;;;7.20;99.90;;;;;;5030968;28;20458;-50
2023/04/09 05:46:04;;;;;;;95.67;39.17;;;7.20;99.90;;;;;;5031193;28;20569;-50
2023/04/09 05:48:30;;;;;;;97.17;36.90;;;7.20;99.90;;;;;;5030847;28;20245;-50
2023/04/09 05:50:56;;;;;;;101.17;39.50;;;7.20;99.90;;;;;;5028499;28;20801;-50
2023/04/09 05:53:22;;;;;;;92.97;38.17;;;7.30;99.90;;;;;;5031712;28;20298;-50
2023/04/09 05:55:50;;;;;;;96.77;39.83;;;7.30;99.90;;;;;;5029591;28;20227;-49
2023/04/09 05:58:20;;;;;;;99.07;39.63;;;7.30;99.90;;;;;;5031436;28;20449;-49
2023/04/09 06:00:46;;;;;;;103.73;40.57;;;7.30;99.90;;;;;;5026393;28;20453;-50
2023/04/09 06:03:11;;;;;;;98.53;39.80;;;7.30;99.90;;;;;;5030551;28;20441;-50
2023/04/09 06:05:37;;;;;;;89.07;38.57;;;7.30;99.90;;;;;;5029848;28;20291;-50
2023/04/09 06:08:02;;;;;;;93.33;41.00;;;7.30;99.90;;;;;;5030596;28;20227;-50
2023/04/09 06:10:30;;;;;;;94.70;39.93;;;7.30;99.90;;;;;;5028633;28;20282;-50
2023/04/09 06:12:56;;;;;;;95.90;38.37;;;7.40;99.90;;;;;;5030536;28;20195;-50
2023/04/09 06:15:21;;;;;;;90.40;37.47;;;7.40;99.90;;;;;;5030168;28;20448;-49
2023/04/09 06:17:47;;;;;;;101.67;40.13;;;7.40;99.90;;;;;;5028394;28;20217;-50
2023/04/09 06:20:12;;;;;;;97.87;39.87;;;7.40;99.90;;;;;;5030944;28;20188;-50
2023/04/09 06:22:38;;;;;;;102.97;40.90;;;7.40;99.90;;;;;;5029621;28;20695;-50
2023/04/09 06:25:04;;;;;;;92.80;38.00;;;7.40;99.90;;;;;;5031069;28;20535;-50
2023/04/09 06:27:29;;;;;;;98.83;39.83;;;7.50;99.90;;;;;;5028386;28;20257;-50
2023/04/09 06:29:55;;;;;;;94.00;39.37;;;7.40;99.90;;;;;;5029998;28;20444;-50
2023/04/09 06:32:21;;;;;;;102.10;40.40;;;7.40;99.90;;;;;;5029431;28;20199;-50
2023/04/09 06:34:47;;;;;;;96.77;40.03;;;7.40;99.90;;;;;;5030612;28;20274;-50
2023/04/09 06:37:12;;;;;;;105.17;43.50;;;7.40;99.90;;;;;;5028439;28;20210;-50
2023/04/09 06:39:39;;;;;;;92.10;38.50;;;7.50;99.90;;;;;;5028986;28;20806;-50
2023/04/09 06:42:05;;;;;;;104.77;40.77;;;7.50;99.90;;;;;;5028770;28;20262;-50
2023/04/09 06:44:32;;;;;;;105.47;42.83;;;7.60;99.90;;;;;;5030892;28;20438;-50
2023/04/09 06:46:57;;;;;;;98.30;39.90;;;7.60;99.90;;;;;;5028187;28;20220;-50
2023/04/09 06:49:23;;;;;;;100.30;40.17;;;7.60;99.90;;;;;;5028714;28;20452;-50
2023/04/09 06:51:50;;;;;;;103.43;39.97;;;7.60;99.90;;;;;;5028999;28;20187;-50
2023/04/09 06:54:16;;;;;;;94.50;37.43;;;7.60;98.90;;;;;;5029327;28;20218;-50
2023/04/09 06:56:41;;;;;;;98.70;40.53;;;7.60;92.80;;;;;;5030264;28;20939;-50
2023/04/09 06:59:07;;;;;;;98.83;38.70;;;7.60;80.10;;;;;;5028038;28;20539;-50
2023/04/09 07:01:34;;;;;;;99.93;41.07;;;7.60;56.80;;;;;;5028842;28;20187;-50
2023/04/09 07:04:00;;;;;;;96.60;39.03;;;7.60;59.80;;;;;;5029146;28;20206;-50
2023/04/09 07:06:25;;;;;;;91.50;37.23;;;7.60;75.60;;;;;;5028585;28;20450;-51
2023/04/09 07:08:51;;;;;;;101.57;38.73;;;7.60;61.10;;;;;;5028806;28;20275;-50
2023/04/09 07:11:16;;;;;;;105.50;42.20;;;7.70;54.00;;;;;;5025273;28;20187;-51
2023/04/09 07:13:42;;;;;;;98.97;37.63;;;7.60;28.20;;;;;;5028636;28;20253;-50
2023/04/09 07:16:08;;;;;;;93.57;37.33;;;7.70;29.30;;;;;;5029187;28;20275;-51
2023/04/09 07:18:33;;;;;;;84.77;35.90;;;7.70;26.00;;;;;;5028236;28;20201;-50
2023/04/09 07:20:59;;;;;;;99.37;36.07;;;7.70;1.00;;;;;;5032573;28;20202;-50
2023/04/09 07:23:24;;;;;;;102.00;39.50;;;7.80;1.00;;;;;;5029563;28;20180;-50
2023/04/09 07:25:50;;;;;;;96.60;38.47;;;7.80;6.50;;;;;;5028296;28;20282;-50
2023/04/09 07:28:16;;;;;;;85.07;36.17;;;8.00;12.70;;;;;;5030111;28;20219;-51
2023/04/09 07:30:41;;;;;;;87.17;37.90;;;8.20;15.20;;;;;;5029439;28;20245;-50
2023/04/09 07:33:07;;;;;;;89.93;37.67;;;8.40;1.00;;;;;;5028395;28;20244;-51
2023/04/09 07:35:33;;;;;;;83.80;36.60;;;8.50;1.00;;;;;;5027775;28;20222;-50
2023/04/09 07:37:59;;;;;;;92.67;35.77;;;8.50;1.00;;;;;;5024563;28;20191;-51
2023/04/09 07:40:25;;;;;;;79.13;32.77;;;8.60;1.00;;;;;;5026916;28;20453;-50
2023/04/09 07:42:52;;;;;;;81.77;33.63;;;8.60;99.90;;;;;;5028655;28;20434;-50
2023/04/09 07:45:18;;;;;;;76.10;32.60;;;8.70;99.90;;;;;;5028882;28;20275;-51
2023/04/09 07:47:43;;;;;;;75.83;33.50;;;8.70;99.90;;;;;;5028629;28;20572;-50
2023/04/09 07:50:09;;;;;;;81.50;33.73;;;8.70;1.00;;;;;;5028089;28;20191;-50
2023/04/09 07:52:35;;;;;;;70.60;32.50;;;8.80;1.00;;;;;;5029320;28;20194;-51
2023/04/09 07:55:00;;;;;;;74.37;31.60;;;8.90;1.00;;;;;;5030446;28;20178;-50
2023/04/09 07:57:26;;;;;;;72.10;31.50;;;8.90;1.00;;;;;;5033925;28;20184;-50
2023/04/09 07:59:52;;;;;;;73.10;32.57;;;9.00;1.00;;;;;;5034129;28;20320;-50
2023/04/09 08:02:18;;;;;;;69.90;31.80;;;9.10;1.00;;;;;;5033282;28;20199;-50
2023/04/09 08:04:44;;;;;;;67.40;30.17;;;9.30;1.00;;;;;;5035174;28;20459;-51
2023/04/09 08:07:10;;;;;;;64.53;30.17;;;9.40;1.00;;;;;;5032676;28;20660;-50
2023/04/09 08:09:35;;;;;;;70.83;32.10;;;9.30;1.00;;;;;;5031034;28;20187;-50
2023/04/09 08:12:01;;;;;;;65.27;30.80;;;9.30;1.00;;;;;;5032509;28;20535;-50
2023/04/09 08:14:27;;;;;;;63.23;31.23;;;9.40;1.00;;;;;;5031490;28;20211;-50
2023/04/09 08:16:52;;;;;;;63.47;29.97;;;9.30;4.40;;;;;;5031037;28;20754;-50
2023/04/09 08:19:19;;;;;;;61.80;29.53;;;9.30;99.90;;;;;;5029515;28;20191;-50
2023/04/09 08:21:47;;;;;;;65.80;30.43;;;9.40;1.00;;;;;;5030379;28;20191;-50
2023/04/09 08:24:13;;;;;;;59.33;29.63;;;9.40;99.90;;;;;;5030818;28;20514;-52
2023/04/09 08:26:40;;;;;;;63.07;29.17;;;9.30;5.40;;;;;;5030985;28;20450;-52
2023/04/09 08:29:07;;;;;;;61.30;28.30;;;9.20;1.00;;;;;;5029619;28;20896;-52
2023/04/09 08:31:33;;;;;;;66.10;30.27;;;9.10;1.00;;;;;;5030147;28;20453;-52
2023/04/09 08:33:58;;;;;;;67.07;29.20;;;9.00;99.90;;;;;;5029600;28;20563;-51
2023/04/09 08:36:25;;;;;;;73.67;31.40;;;9.00;1.00;;;;;;5030104;28;20272;-51
2023/04/09 08:38:51;;;;;;;62.80;31.07;;;8.90;95.40;;;;;;5028189;28;20278;-51
2023/04/09 08:41:25;;;;;;;48.50;23.97;;;8.90;1.00;;;;;;5030384;28;20449;-51
2023/04/09 08:43:51;;;;;;;55.17;26.57;;;8.90;1.00;;;;;;5028291;28;20557;-51
2023/04/09 08:46:21;;;;;;;58.30;27.60;;;9.00;1.00;;;;;;5030978;28;20444;-53
2023/04/09 08:48:49;;;;;;;66.20;29.90;;;9.10;99.90;;;;;;5028550;28;20493;-52
2023/04/09 08:51:16;;;;;;;56.87;27.73;;;9.20;99.90;;;;;;5030774;28;20449;-50
2023/04/09 08:53:56;;;;;;;53.90;26.50;;;9.30;99.90;;;;;;5034160;28;20854;-50
2023/04/09 08:56:22;;;;;;;55.00;25.77;;;9.40;1.00;;;;;;5030319;28;21018;-50
2023/04/09 08:58:48;;;;;;;47.10;24.53;;;9.50;1.00;;;;;;5030462;28;20496;-50
2023/04/09 09:01:18;;;;;;;49.67;24.40;;;9.70;1.00;;;;;;5032235;28;20448;-51
2023/04/09 09:03:55;;;;;;;52.83;26.80;;;9.80;1.00;;;;;;5030482;28;20248;-50
2023/04/09 09:06:26;;;;;;;58.93;30.70;;;9.80;99.90;;;;;;5029825;28;20463;-52
2023/04/09 09:09:04;;;;;;;66.97;31.80;;;9.70;99.90;;;;;;5032315;28;20489;-52
2023/04/09 09:11:31;;;;;;;59.67;33.13;;;9.60;1.00;;;;;;5031763;28;20436;-51
2023/04/09 09:14:09;;;;;;;73.00;39.63;;;9.50;99.90;;;;;;5026112;28;20792;-51
2023/04/09 09:16:43;;;;;;;74.67;39.97;;;9.50;99.90;;;;;;5028530;28;20454;-50
2023/04/09 09:19:32;;;;;;;74.27;36.97;;;9.40;99.90;;;;;;5029119;28;20777;-50
2023/04/09 09:22:02;;;;;;;58.53;33.50;;;9.30;99.90;;;;;;5028716;28;20431;-50
2023/04/09 09:24:29;;;;;;;58.63;33.00;;;9.30;99.90;;;;;;5027251;28;20817;-50
2023/04/09 09:26:56;;;;;;;73.13;38.60;;;9.20;99.90;;;;;;5015387;28;20916;-52
2023/04/09 09:29:21;;;;;;;69.33;38.40;;;9.40;99.90;;;;;;5013027;28;20454;-53
2023/04/09 09:31:49;;;;;;;58.87;31.73;;;9.40;99.90;;;;;;5015684;28;20511;-53
2023/04/09 09:34:18;;;;;;;50.83;30.90;;;9.40;96.50;;;;;;5016696;28;20191;-52
2023/04/09 09:36:44;;;;;;;59.27;32.27;;;9.30;88.60;;;;;;5012367;28;20438;-52
2023/04/09 09:39:11;;;;;;;56.25;33.85;;;9.40;82.80;;;;;;5026120;28;20516;-51
2023/04/09 09:41:42;;;;;;;73.17;39.37;;;9.40;73.50;;;;;;5027832;28;20607;-51
2023/04/09 09:44:10;;;;;;;65.23;35.97;;;9.40;49.60;;;;;;5027259;28;20450;-51
2023/04/09 09:46:37;;;;;;;62.67;36.77;;;9.40;60.10;;;;;;5027278;28;20448;-51
2023/04/09 09:49:04;;;;;;;68.93;36.97;;;9.50;75.70;;;;;;5026969;28;21017;-51
2023/04/09 09:51:31;;;;;;;72.73;39.30;;;9.50;62.10;;;;;;5029264;28;20535;-50
2023/04/09 09:53:58;;;;;;;66.33;35.93;;;9.60;41.20;;;;;;5023889;28;20988;-51
2023/04/09 09:56:45;;;;;;;60.37;35.10;;;9.70;18.70;;;;;;5028095;28;20517;-53
2023/04/09 09:59:20;;;;;;;57.97;30.90;;;9.70;13.50;;;;;;5028102;28;20525;-54
2023/04/09 10:01:50;;;;;;;57.50;30.17;;;9.70;9.20;;;;;;5030134;28;20525;-51
2023/04/09 10:04:18;;;;;;;56.47;30.67;;;9.70;6.30;;;;;;5025981;28;20446;-51
2023/04/09 10:06:45;;;;;;;56.17;32.70;;;9.50;1.00;;;;;;5030319;28;20438;-51
2023/04/09 10:09:12;;;;;;;62.97;33.53;;;9.60;7.90;;;;;;5027472;28;21516;-51
2023/04/09 10:11:42;;;;;;;65.63;36.37;;;9.70;7.50;;;;;;5028242;28;20473;-51
2023/04/09 10:14:08;;;;;;;76.57;40.70;;;9.90;1.00;;;;;;5029269;28;20863;-51
2023/04/09 10:16:34;;;;;;;72.47;40.90;;;9.90;1.00;;;;;;5028467;28;20445;-52
2023/04/09 10:19:00;;;;;;;70.23;40.20;;;9.90;1.00;;;;;;5029314;28;20430;-54
2023/04/09 10:21:35;;;;;;;65.90;40.40;;;10.00;1.00;;;;;;5026979;28;20199;-52
2023/04/09 10:24:04;;;;;;;63.63;37.53;;;10.20;1.00;;;;;;5024960;28;20438;-52
2023/04/09 10:26:39;;;;;;;90.00;45.23;;;10.30;1.00;;;;;;5026792;28;20449;-52
2023/04/09 10:29:12;;;;;;;74.13;44.00;;;10.40;1.00;;;;;;5026504;28;20514;-53
2023/04/09 10:32:05;;;;;;;75.33;41.03;;;10.60;1.00;;;;;;5029220;28;20449;-51
2023/04/09 10:34:40;;;;;;;61.27;34.90;;;10.70;1.00;;;;;;5026207;28;20445;-52
2023/04/09 10:37:20;;;;;;;51.40;30.43;;;10.90;1.00;;;;;;5022074;28;20448;-52
2023/04/09 10:39:47;;;;;;;50.37;30.50;;;11.10;1.00;;;;;;5028358;28;20471;-52
2023/04/09 10:42:16;;;;;;;53.13;30.73;;;11.20;1.00;;;;;;5025606;28;20438;-52
2023/04/09 10:44:42;;;;;;;54.57;30.80;;;11.50;1.00;;;;;;5023726;28;20955;-53
2023/04/09 10:47:09;;;;;;;50.93;28.70;;;11.80;1.00;;;;;;5026906;28;20573;-52
2023/04/09 10:49:44;;;;;;;48.37;28.47;;;11.90;1.00;;;;;;5026427;28;20183;-53
2023/04/09 10:52:12;;;;;;;47.77;28.83;;;12.20;1.00;;;;;;5027525;28;20441;-53
2023/04/09 10:54:45;;;;;;;61.00;33.53;;;12.40;1.00;;;;;;5027788;28;20557;-52
2023/04/09 10:57:17;;;;;;;57.40;35.47;;;12.70;1.00;;;;;;5025962;28;20874;-52
2023/04/09 10:59:53;;;;;;;54.47;32.13;;;13.00;1.00;;;;;;5025881;28;20832;-52
2023/04/09 11:02:37;;;;;;;54.40;32.60;;;13.20;1.00;;;;;;5025381;28;20441;-52
2023/04/09 11:05:16;;;;;;;55.17;34.70;;;13.10;1.00;;;;;;5029878;28;20461;-52
2023/04/09 11:07:51;;;;;;;48.90;29.40;;;13.30;1.00;;;;;;5026543;28;20630;-52
2023/04/09 11:10:17;;;;;;;72.10;40.20;;;13.40;1.00;;;;;;5027965;28;20433;-52
2023/04/09 11:12:43;;;;;;;62.93;37.40;;;13.50;1.00;;;;;;5025675;28;20450;-53
2023/04/09 11:15:16;;;;;;;53.53;32.80;;;13.60;1.00;;;;;;5026700;28;20441;-53
2023/04/09 11:17:42;;;;;;;50.70;28.90;;;13.80;1.00;;;;;;5027771;28;20199;-51
2023/04/09 11:20:09;;;;;;;59.50;38.70;;;13.80;1.00;;;;;;5028116;28;20453;-51
2023/04/09 11:22:35;;;;;;;48.70;29.57;;;13.90;1.00;;;;;;5029297;28;20434;-51
2023/04/09 11:25:01;;;;;;;54.17;31.63;;;14.50;1.00;;;;;;5029936;28;20800;-51
2023/04/09 11:27:27;;;;;;;47.07;29.30;;;15.50;1.00;;;;;;5025566;28;20698;-52
2023/04/09 11:29:56;;;;;;;56.27;32.83;;;16.10;1.00;;;;;;5026821;28;20449;-52
2023/04/09 11:32:21;;;;;;;47.37;30.50;;;16.90;1.00;;;;;;5032121;28;20201;-52
2023/04/09 11:34:47;;;;;;;55.20;33.40;;;17.10;1.00;;;;;;5032727;28;20447;-52
2023/04/09 11:37:17;;;;;;;46.30;26.90;;;17.50;1.00;;;;;;5025873;28;21023;-52
2023/04/09 11:39:44;;;;;;;35.13;24.37;;;17.90;1.00;;;;;;5032548;28;20181;-54
2023/04/09 11:42:15;;;;;;;40.70;25.80;;;18.00;1.00;;;;;;5030503;28;20604;-53
2023/04/09 11:44:43;;;;;;;45.03;27.60;;;17.80;1.00;;;;;;5028843;28;20454;-53
2023/04/09 11:47:09;;;;;;;48.97;32.50;;;17.40;1.00;;;;;;5029734;28;20479;-53
2023/04/09 11:49:34;;;;;;;55.27;34.87;;;17.70;1.00;;;;;;5032475;28;20451;-52
2023/04/09 11:52:02;;;;;;;57.83;35.93;;;17.90;1.00;;;;;;5031619;28;20459;-53
2023/04/09 11:54:32;;;;;;;55.60;34.43;;;18.50;1.00;;;;;;5027221;28;20658;-54
2023/04/09 11:56:59;;;;;;;70.53;44.30;;;18.80;1.00;;;;;;5028006;28;20454;-53
2023/04/09 11:59:24;;;;;;;62.30;43.07;;;18.90;1.00;;;;;;5027642;28;20448;-53
2023/04/09 12:01:50;;;;;;;61.07;38.40;;;19.30;1.00;;;;;;5030738;28;20433;-54
2023/04/09 12:04:20;;;;;;;50.30;32.07;;;19.10;1.00;;;;;;5028824;28;20677;-54
2023/04/09 12:06:46;;;;;;;42.87;27.53;;;18.80;1.00;;;;;;5031320;28;20462;-53
2023/04/09 12:09:13;;;;;;;53.23;33.67;;;18.00;1.00;;;;;;5031479;28;20909;-53
2023/04/09 12:11:41;;;;;;;52.47;34.13;;;17.50;1.00;;;;;;5029707;28;20726;-54
2023/04/09 12:14:12;;;;;;;50.77;32.27;;;17.70;1.00;;;;;;5030055;28;20443;-54
2023/04/09 12:16:40;;;;;;;47.53;31.83;;;18.30;1.00;;;;;;5031161;28;20446;-54
2023/04/09 12:19:07;;;;;;;46.07;30.53;;;18.70;1.00;;;;;;5030165;28;20511;-53
2023/04/09 12:21:49;;;;;;;49.87;32.17;;;18.60;1.00;;;;;;5030932;28;20448;-53
2023/04/09 12:24:17;;;;;;;50.83;33.40;;;18.40;1.00;;;;;;5031571;28;20465;-54
2023/04/09 12:26:44;;;;;;;48.60;32.77;;;18.50;1.00;;;;;;5029950;28;20832;-54
2023/04/09 12:29:09;;;;;;;51.03;34.17;;;18.80;1.00;;;;;;5032590;28;20476;-54
2023/04/09 12:31:35;;;;;;;52.23;34.77;;;19.30;1.00;;;;;;5032083;28;20801;-54
2023/04/09 12:34:01;;;;;;;57.07;36.83;;;19.40;1.00;;;;;;5032973;28;20194;-56